Terminal Aerodrome Forecast
Issued by NWS

Home | Current Version | Previous Version | Text Only | Print | Product List | Glossary On
Versions: 1 2 3 4 5 6 7 8 9 10 11 12 13 14
000
FTUS43 KAPX 162342
TAFMBL
TAF
KMBL 162342Z 1700/1724 11005KT 5SM -FZRASN BR OVC022
     FM170300 11004KT 4SM FZRA OVC008
     FM170600 10006KT 3SM -FZRA OVC015
     FM171000 09006KT 1SM -RA OVC008
     FM171400 06006KT 1SM -RA OVC008
     FM171700 04005KT P6SM VCSH OVC008
     FM171800 03005KT P6SM OVC008
     FM172200 35004KT P6SM OVC003=

USA.gov is the U.S. government's official web portal to all federal, state and local government web resources and services.